Brier, Washington
Current Conditions -  °F | °C
As of 12:11 AM on Thursday 29 Jan 2015 (Local Time) from KPAE Reporting Station
Moderate Fog Moderate Fog  
Wind Chill: 37°   Ceiling: 100
Heat Index: 41°   Visibility: 0.25mi
Dew Point: 39°   Wind: 6mph
Humidity: 93%   Direction: 20°NNE
Pressure: 30.37"   Gusts: NA
Location:  47.8111°N, 122.283°W
Report Text: KPAE 290811Z AUTO 02005KT 1/4SM R16R/P6000FT FG VV001 05/04 A3037 RMK AO2 T00500039
Loading
Personal Weather Stations






























Interactive Weather Map New forecast layout! Learn more

10-Day Weather Forecast

Advertisements
Track Severe Weather on mobile